Weather History for Austin, MN

Change the Weather History Date:

Wednesday, January 25, 2012

  Actual Average Record
Temperature  
Mean Temperature 26 °F -  
Max Temperature 32 °F 21 °F 51 °F (2002)
Min Temperature 21 °F 9 °F -13 °F (1997)
Degree Days  
Heating Degree Days 38    
Moisture  
Dew Point 22 °F    
Average Humidity 85    
Maximum Humidity 93    
Minimum Humidity 80    
Precipitation  
Precipitation 0.00 in - - ()
Sea Level Pressure  
Sea Level Pressure 30.11 in    
Wind  
Wind Speed 6 mph (SSE)    
Max Wind Speed 15 mph    
Max Gust Speed 23 mph    
Visibility 7 miles    
Events Snow    
Averages and records for this station are not official NWS values.
T = Trace of Precipitation, MM = Missing Value Source: NWS Daily Summary

Daily Weather History Graph

Daily Weather History Graph

Search for Another Location

Airport:

Trip Planner

Search our weather history database for the weather conditions in past years. The results will help you decide how hot, cold, wet, or windy it might be!

Date:

Astronomy

Jan. 25, 2012 Rise Set
Actual Time 7:35 AM CST 5:12 PM CST
Civil Twilight 7:04 AM CST 5:43 PM CST
Nautical Twilight 6:29 AM CST 6:18 PM CST
Astronomical Twilight 5:55 AM CST 6:52 PM CST
Moon 8:28 AM CST (1/25) 8:13 PM CST (1/25)
Length of Visible Light 10h 39m
Length of Day
9h 37m
Waxing Crescent, 7% of the Moon is Illuminated
Jan 25
Waxing Crescent
Jan 30
First Quarter
Feb 7
Full
Feb 14
Last Quarter
Feb 21
New

Hourly Weather History & Observations

Time (CST) Temp. Windchill Dew Point Humidity Pressure Visibility Wind Dir Wind Speed Gust Speed Precip Events Conditions
12:16 AM 21.2 °F 13.6 °F 19.4 °F 93% 30.27 in 10.0 mi SSW 5.8 mph - N/A   Overcast
12:36 AM 21.2 °F 14.9 °F 19.4 °F 93% 30.27 in 10.0 mi SSW 4.6 mph - N/A   Overcast
12:56 AM 21.2 °F 16.4 °F 19.4 °F 93% 30.27 in 10.0 mi South 3.5 mph - N/A   Overcast
1:16 AM 21.2 °F 16.4 °F 19.4 °F 93% 30.28 in 10.0 mi SSE 3.5 mph - N/A   Overcast
1:36 AM 21.2 °F 10.1 °F 19.4 °F 93% 30.30 in 10.0 mi South 10.4 mph - N/A Snow Light Snow
1:56 AM 21.2 °F 11.7 °F 19.4 °F 93% 30.30 in 3.0 mi South 8.1 mph - N/A Snow Light Snow
2:36 AM 23.0 °F 18.4 °F 19.4 °F 86% 30.27 in 10.0 mi SSE 3.5 mph - N/A   Overcast
2:56 AM 23.0 °F 18.4 °F 19.4 °F 86% 30.26 in 10.0 mi SSE 3.5 mph - N/A   Overcast
3:16 AM 21.2 °F - 19.4 °F 93% 30.25 in 7.0 mi Calm Calm - N/A   Overcast
3:36 AM 23.0 °F 18.4 °F 19.4 °F 86% 30.24 in 7.0 mi ESE 3.5 mph - N/A   Overcast
3:56 AM 23.0 °F 15.8 °F 19.4 °F 86% 30.22 in 7.0 mi SE 5.8 mph - N/A   Overcast
4:16 AM 23.0 °F 17.0 °F 19.4 °F 86% 30.21 in 10.0 mi SE 4.6 mph - N/A   Overcast
4:36 AM 23.0 °F 15.8 °F 19.4 °F 86% 30.20 in 10.0 mi ESE 5.8 mph - N/A   Overcast
4:56 AM 23.0 °F 18.4 °F 19.4 °F 86% 30.20 in 10.0 mi SE 3.5 mph - N/A   Overcast
5:16 AM 23.0 °F 17.0 °F 19.4 °F 86% 30.22 in 10.0 mi South 4.6 mph - N/A   Overcast
5:37 AM 23.0 °F 15.8 °F 19.4 °F 86% 30.22 in 10.0 mi SSE 5.8 mph - N/A   Overcast
6:16 AM 23.0 °F 17.0 °F 19.4 °F 86% 30.22 in 7.0 mi South 4.6 mph - N/A   Overcast
6:36 AM 21.2 °F 12.6 °F 19.4 °F 93% 30.20 in 7.0 mi SE 6.9 mph - N/A   Overcast
6:56 AM 21.2 °F 13.6 °F 19.4 °F 93% 30.20 in 7.0 mi SSE 5.8 mph - N/A   Overcast
7:16 AM 21.2 °F 13.6 °F 19.4 °F 93% 30.20 in 7.0 mi SSE 5.8 mph - N/A   Overcast
7:37 AM 23.0 °F 15.8 °F 19.4 °F 86% 30.19 in 7.0 mi SE 5.8 mph - N/A   Overcast
7:56 AM 23.0 °F 14.7 °F 19.4 °F 86% 30.18 in 7.0 mi SE 6.9 mph - N/A   Overcast
8:16 AM 23.0 °F 14.7 °F 19.4 °F 86% 30.16 in 7.0 mi SE 6.9 mph - N/A   Overcast
8:36 AM 24.8 °F 16.1 °F 19.4 °F 80% 30.15 in 5.0 mi SE 8.1 mph - N/A   Overcast
8:56 AM 24.8 °F 17.9 °F 19.4 °F 80% 30.14 in 7.0 mi ESE 5.8 mph - N/A   Overcast
9:16 AM 24.8 °F - 19.4 °F 80% 30.14 in 7.0 mi Calm Calm - N/A   Overcast
9:37 AM 24.8 °F - 21.2 °F 86% 30.13 in 7.0 mi Calm Calm - N/A   Overcast
9:56 AM 26.6 °F 20.0 °F 21.2 °F 80% 30.13 in 7.0 mi South 5.8 mph - N/A   Overcast
10:16 AM 26.6 °F 18.2 °F 21.2 °F 80% 30.13 in 7.0 mi SSE 8.1 mph - N/A   Overcast
10:37 AM 26.6 °F 17.5 °F 21.2 °F 80% 30.12 in 7.0 mi SSE 9.2 mph - N/A   Overcast
10:56 AM 26.6 °F 17.5 °F 21.2 °F 80% 30.12 in 7.0 mi SSE 9.2 mph - N/A   Overcast
11:16 AM 28.4 °F 19.7 °F 23.0 °F 80% 30.12 in 7.0 mi SSE 9.2 mph - N/A   Overcast
11:36 AM 28.4 °F 20.4 °F 23.0 °F 80% 30.10 in 7.0 mi South 8.1 mph 16.1 mph N/A   Overcast
11:56 AM 28.4 °F 19.7 °F 24.8 °F 86% 30.10 in 7.0 mi South 9.2 mph - N/A   Overcast
12:16 PM 30.2 °F 21.9 °F 24.8 °F 80% 30.09 in 7.0 mi South 9.2 mph - N/A   Overcast
12:37 PM 30.2 °F 21.3 °F 24.8 °F 80% 30.08 in 7.0 mi South 10.4 mph 17.3 mph N/A   Overcast
12:56 PM 30.2 °F 21.9 °F 24.8 °F 80% 30.06 in 7.0 mi South 9.2 mph - N/A   Overcast
1:16 PM 30.2 °F 20.8 °F 24.8 °F 80% 30.06 in 7.0 mi South 11.5 mph 20.7 mph N/A   Overcast
1:36 PM 30.2 °F 20.2 °F 24.8 °F 80% 30.04 in 7.0 mi South 12.7 mph 23.0 mph N/A   Overcast
1:56 PM 30.2 °F 19.3 °F 24.8 °F 80% 30.03 in 7.0 mi SSE 15.0 mph 19.6 mph N/A   Overcast
2:17 PM 32.0 °F 23.0 °F 26.6 °F 80% 30.02 in 7.0 mi South 11.5 mph 20.7 mph N/A   Overcast
2:36 PM 32.0 °F 23.6 °F 26.6 °F 80% 30.02 in 7.0 mi South 10.4 mph 18.4 mph N/A   Overcast
2:56 PM 32.0 °F 22.5 °F 26.6 °F 80% 30.02 in 7.0 mi South 12.7 mph - N/A   Overcast
3:36 PM 32.0 °F 21.6 °F 26.6 °F 80% 30.01 in 7.0 mi South 15.0 mph 19.6 mph N/A   Overcast
3:56 PM 32.0 °F 22.1 °F 26.6 °F 80% 30.01 in 7.0 mi South 13.8 mph - N/A   Scattered Clouds
4:36 PM 30.2 °F 22.6 °F 26.6 °F 86% 29.99 in 7.0 mi South 8.1 mph - N/A   Mostly Cloudy
4:56 PM 30.2 °F 21.9 °F 24.8 °F 80% 29.98 in 5.0 mi South 9.2 mph - N/A   Haze
5:17 PM 30.2 °F 21.3 °F 24.8 °F 80% 29.96 in 5.0 mi South 10.4 mph - N/A   Haze
5:36 PM 30.2 °F 21.9 °F 24.8 °F 80% 29.96 in 7.0 mi South 9.2 mph - N/A   Clear
5:56 PM 28.4 °F 19.1 °F 24.8 °F 86% 29.96 in 7.0 mi South 10.4 mph - N/A   Clear
6:16 PM 28.4 °F 20.4 °F 24.8 °F 86% 29.96 in 7.0 mi South 8.1 mph - N/A   Clear
6:36 PM 28.4 °F 20.4 °F 24.8 °F 86% 29.96 in 7.0 mi SSE 8.1 mph - N/A   Clear
6:56 PM 26.6 °F 21.2 °F 23.0 °F 86% 29.96 in 7.0 mi South 4.6 mph - N/A   Clear
7:16 PM 26.6 °F 20.0 °F 23.0 °F 86% 29.95 in 5.0 mi SSE 5.8 mph - N/A   Clear
7:36 PM 26.6 °F 18.2 °F 23.0 °F 86% 29.94 in 5.0 mi SSE 8.1 mph - N/A   Clear
7:56 PM 26.6 °F 18.2 °F 23.0 °F 86% 29.94 in 5.0 mi South 8.1 mph - N/A   Clear
8:16 PM 26.6 °F 18.2 °F 23.0 °F 86% 29.93 in 5.0 mi South 8.1 mph - N/A   Mostly Cloudy
8:36 PM 26.6 °F 19.1 °F 23.0 °F 86% 29.93 in 5.0 mi South 6.9 mph - N/A   Overcast
9:16 PM 26.6 °F 19.1 °F 24.8 °F 93% 29.91 in 5.0 mi South 6.9 mph - N/A   Overcast
9:37 PM 26.6 °F 19.1 °F 24.8 °F 93% 29.91 in 5.0 mi SSE 6.9 mph - N/A   Overcast
9:56 PM 26.6 °F 17.5 °F 24.8 °F 93% 29.89 in 5.0 mi South 9.2 mph - N/A   Mostly Cloudy
10:36 PM 26.6 °F 15.2 °F 24.8 °F 93% 29.90 in 7.0 mi South 13.8 mph 18.4 mph N/A   Overcast
10:56 PM 28.4 °F 16.6 °F 24.8 °F 86% 29.92 in 7.0 mi South 16.1 mph - N/A   Overcast
11:16 PM 28.4 °F 17.0 °F 24.8 °F 86% 29.92 in 7.0 mi South 15.0 mph - N/A   Mostly Cloudy
11:37 PM 26.6 °F 16.2 °F 24.8 °F 93% 29.91 in 7.0 mi South 11.5 mph - N/A   Scattered Clouds
11:56 PM 26.6 °F 16.8 °F 24.8 °F 93% 29.89 in 5.0 mi South 10.4 mph - N/A   Clear